createdAt,value
2019-01-02T00:01:24.666Z,8.10
2019-01-02T00:03:29.661Z,8.10
2019-01-02T00:05:34.839Z,8.10
2019-01-02T00:07:39.816Z,8.10
2019-01-02T00:09:45.102Z,8.10
2019-01-02T00:11:50.402Z,8.10
2019-01-02T00:13:55.373Z,8.10
2019-01-02T00:16:00.398Z,8.10
2019-01-02T00:18:05.800Z,8.10
2019-01-02T00:20:13.240Z,8.10
2019-01-02T00:22:18.274Z,8.10
2019-01-02T00:24:24.156Z,8.00
2019-01-02T00:26:29.158Z,8.10
2019-01-02T00:28:34.046Z,8.00
2019-01-02T00:30:39.357Z,8.00
2019-01-02T00:32:44.675Z,8.00
2019-01-02T00:34:49.895Z,8.00
2019-01-02T00:36:54.780Z,8.00
2019-01-02T00:39:00.338Z,8.00
2019-01-02T00:41:05.302Z,8.00
2019-01-02T00:43:10.357Z,8.00
2019-01-02T00:45:15.465Z,8.00
2019-01-02T00:47:20.880Z,8.00
2019-01-02T00:49:25.929Z,8.00
2019-01-02T00:51:30.994Z,8.00
2019-01-02T00:53:36.065Z,8.00
2019-01-02T00:55:41.060Z,8.00
2019-01-02T00:57:46.018Z,7.90
2019-01-02T00:59:50.985Z,8.00
2019-01-02T01:01:56.213Z,8.00
2019-01-02T01:04:01.509Z,7.90
2019-01-02T01:06:06.582Z,7.90
2019-01-02T01:08:11.589Z,8.00
2019-01-02T01:10:18.686Z,8.00
2019-01-02T01:12:23.925Z,7.90
2019-01-02T01:14:28.869Z,8.00
2019-01-02T01:16:33.841Z,8.00
2019-01-02T01:18:39.084Z,8.00
2019-01-02T01:20:44.209Z,8.00
2019-01-02T01:22:49.336Z,8.00
2019-01-02T01:24:54.256Z,7.90
2019-01-02T01:26:59.301Z,8.00
2019-01-02T01:29:04.420Z,7.90
2019-01-02T01:31:09.606Z,7.90
2019-01-02T01:33:14.643Z,7.90
2019-01-02T01:35:20.161Z,8.00
2019-01-02T01:37:25.758Z,7.90
2019-01-02T01:39:30.889Z,7.90
2019-01-02T01:41:35.765Z,7.90
2019-01-02T01:43:40.730Z,7.90
2019-01-02T01:45:45.781Z,7.90
2019-01-02T01:47:50.839Z,7.90
2019-01-02T01:49:56.230Z,7.90
2019-01-02T01:52:01.276Z,7.90
2019-01-02T01:54:06.227Z,7.90
2019-01-02T01:56:11.168Z,7.90
2019-01-02T01:58:16.085Z,7.80
2019-01-02T02:00:24.440Z,7.80
2019-01-02T02:02:29.871Z,7.80
2019-01-02T02:04:36.001Z,7.80
2019-01-02T02:06:44.838Z,7.80
2019-01-02T02:08:49.813Z,7.80
2019-01-02T02:10:54.705Z,7.80
2019-01-02T02:12:59.767Z,7.80
2019-01-02T02:15:05.204Z,7.80
2019-01-02T02:17:10.380Z,7.80
2019-01-02T02:19:15.357Z,7.80
2019-01-02T02:21:20.383Z,7.80
2019-01-02T02:23:25.607Z,7.80
2019-01-02T02:25:30.675Z,7.80
2019-01-02T02:27:35.816Z,7.80
2019-01-02T02:29:40.960Z,7.80
2019-01-02T02:31:46.044Z,7.70
2019-01-02T02:33:50.933Z,7.70
2019-01-02T02:35:56.459Z,7.70
2019-01-02T02:38:01.995Z,7.70
2019-01-02T02:40:08.365Z,7.70
2019-01-02T02:42:13.410Z,7.70
2019-01-02T02:44:18.700Z,7.70
2019-01-02T02:46:24.466Z,7.70
2019-01-02T02:48:29.878Z,7.70
2019-01-02T02:50:35.222Z,7.70
2019-01-02T02:52:40.483Z,7.70
2019-01-02T02:54:45.443Z,7.70
2019-01-02T02:56:50.526Z,7.70
2019-01-02T02:58:55.915Z,7.70
2019-01-02T03:01:02.514Z,7.70
2019-01-02T03:03:08.576Z,7.70
2019-01-02T03:05:15.221Z,7.70
2019-01-02T03:07:20.703Z,7.70
2019-01-02T03:09:26.129Z,7.70
2019-01-02T03:11:31.188Z,7.70
2019-01-02T03:13:36.384Z,7.70
2019-01-02T03:15:41.771Z,7.70
2019-01-02T03:17:47.177Z,7.70
2019-01-02T03:19:52.125Z,7.70
2019-01-02T03:21:57.465Z,7.70
2019-01-02T03:24:02.923Z,7.70
2019-01-02T03:26:07.950Z,7.70
2019-01-02T03:28:13.032Z,7.70
2019-01-02T03:30:19.978Z,7.70
2019-01-02T03:32:25.146Z,7.70
2019-01-02T03:34:30.413Z,7.70
2019-01-02T03:36:35.454Z,7.70
2019-01-02T03:38:40.512Z,7.70
2019-01-02T03:40:45.403Z,7.70
2019-01-02T03:42:50.722Z,7.70
2019-01-02T03:44:55.680Z,7.70
2019-01-02T03:47:00.632Z,7.70
2019-01-02T03:49:05.800Z,7.70
2019-01-02T03:51:10.934Z,7.70
2019-01-02T03:53:16.011Z,7.70
2019-01-02T03:55:21.158Z,7.70
2019-01-02T03:57:26.275Z,7.70
2019-01-02T03:59:31.355Z,7.70
2019-01-02T04:01:36.392Z,7.70
2019-01-02T04:03:41.435Z,7.80
2019-01-02T04:05:46.602Z,7.80
2019-01-02T04:07:57.340Z,7.80
2019-01-02T04:10:02.300Z,7.70
2019-01-02T04:12:07.296Z,7.70
2019-01-02T04:14:12.380Z,7.70
2019-01-02T04:16:17.347Z,7.70
2019-01-02T04:18:22.428Z,7.70
2019-01-02T04:20:27.349Z,7.70
2019-01-02T04:22:32.330Z,7.70
2019-01-02T04:24:37.480Z,7.70
2019-01-02T04:26:42.457Z,7.70
2019-01-02T04:28:47.368Z,7.70
2019-01-02T04:30:52.287Z,7.70
2019-01-02T04:32:57.197Z,7.70
2019-01-02T04:35:02.178Z,7.70
2019-01-02T04:37:07.240Z,7.70
2019-01-02T04:39:12.128Z,7.70
2019-01-02T04:41:17.381Z,7.70
2019-01-02T04:43:22.373Z,7.70
2019-01-02T04:45:27.396Z,7.70
2019-01-02T04:47:32.470Z,7.70
2019-01-02T04:49:37.375Z,7.70
2019-01-02T04:51:42.281Z,7.70
2019-01-02T04:53:47.418Z,7.80
2019-01-02T04:55:52.437Z,7.70
2019-01-02T04:57:57.330Z,7.70
2019-01-02T05:00:02.362Z,7.70
2019-01-02T05:02:07.440Z,7.80
2019-01-02T05:04:12.416Z,7.80
2019-01-02T05:06:17.384Z,7.80
2019-01-02T05:08:22.323Z,7.80
2019-01-02T05:10:27.280Z,7.70
2019-01-02T05:12:32.375Z,7.70
2019-01-02T05:14:37.504Z,7.70
2019-01-02T05:16:42.466Z,7.70
2019-01-02T05:18:48.953Z,7.70
2019-01-02T05:20:54.097Z,7.70
2019-01-02T05:22:59.037Z,7.70
2019-01-02T05:25:04.150Z,7.70
2019-01-02T05:27:09.181Z,7.70
2019-01-02T05:29:14.180Z,7.70
2019-01-02T05:31:19.216Z,7.70
2019-01-02T05:33:24.220Z,7.70
2019-01-02T05:35:29.189Z,7.70
2019-01-02T05:37:34.232Z,7.70
2019-01-02T05:39:39.083Z,7.70
2019-01-02T05:41:44.090Z,7.70
2019-01-02T05:43:48.980Z,7.60
2019-01-02T05:45:53.969Z,7.70
2019-01-02T05:47:59.241Z,7.70
2019-01-02T05:50:04.733Z,7.70
2019-01-02T05:52:09.695Z,7.70
2019-01-02T05:54:14.604Z,7.70
2019-01-02T05:56:19.643Z,7.70
2019-01-02T05:58:24.626Z,7.70
2019-01-02T06:00:29.612Z,7.60
2019-01-02T06:02:34.686Z,7.60
2019-01-02T06:04:39.584Z,7.60
2019-01-02T06:06:44.475Z,7.60
2019-01-02T06:08:49.371Z,7.60
2019-01-02T06:10:54.387Z,7.60
2019-01-02T06:12:59.373Z,7.60
2019-01-02T06:15:04.469Z,7.60
2019-01-02T06:17:09.494Z,7.60
2019-01-02T06:19:14.482Z,7.60
2019-01-02T06:21:19.634Z,7.60
2019-01-02T06:23:24.610Z,7.60
2019-01-02T06:25:29.642Z,7.60
2019-01-02T06:27:34.704Z,7.50
2019-01-02T06:29:39.667Z,7.50
2019-01-02T06:31:44.609Z,7.50
2019-01-02T06:33:49.714Z,7.50
2019-01-02T06:35:54.693Z,7.50
2019-01-02T06:37:59.758Z,7.50
2019-01-02T06:40:05.941Z,7.50
2019-01-02T06:42:10.891Z,7.50
2019-01-02T06:44:16.020Z,7.50
2019-01-02T06:46:21.064Z,7.50
2019-01-02T06:48:26.085Z,7.50
2019-01-02T06:50:31.242Z,7.50
2019-01-02T06:52:36.202Z,7.50
2019-01-02T06:54:41.251Z,7.40
2019-01-02T06:56:46.512Z,7.50
2019-01-02T06:58:52.595Z,7.50
2019-01-02T07:00:57.575Z,7.40
2019-01-02T07:03:02.549Z,7.40
2019-01-02T07:05:08.738Z,7.40
2019-01-02T07:07:13.697Z,7.40
2019-01-02T07:09:18.809Z,7.40
2019-01-02T07:11:23.764Z,7.40
2019-01-02T07:13:28.656Z,7.30
2019-01-02T07:15:33.657Z,7.30
2019-01-02T07:17:38.681Z,7.30
2019-01-02T07:19:43.669Z,7.30
2019-01-02T07:21:48.659Z,7.30
2019-01-02T07:23:53.674Z,7.20
2019-01-02T07:25:58.824Z,7.20
2019-01-02T07:28:03.890Z,7.20
2019-01-02T07:30:14.976Z,7.10
2019-01-02T07:32:24.590Z,7.20
2019-01-02T07:35:31.429Z,7.10
2019-01-02T07:38:13.482Z,7.20
2019-01-02T07:41:14.418Z,7.10
2019-01-02T07:44:18.640Z,7.10
2019-01-02T07:47:31.010Z,7.10
2019-01-02T07:50:47.524Z,7.10
2019-01-02T07:53:31.051Z,7.10
2019-01-02T07:56:30.254Z,7.20
2019-01-02T07:59:15.477Z,7.10
2019-01-02T08:02:10.639Z,7.10
2019-01-02T08:05:00.470Z,7.10
2019-01-02T08:08:00.702Z,7.10
2019-01-02T08:11:02.814Z,7.20
2019-01-02T08:14:38.711Z,7.20
2019-01-02T08:17:32.902Z,7.20
2019-01-02T08:21:04.577Z,7.20
2019-01-02T08:24:11.454Z,7.20
2019-01-02T08:27:14.712Z,7.20
2019-01-02T08:29:52.107Z,7.20
2019-01-02T08:33:10.634Z,7.20
2019-01-02T08:36:31.512Z,7.20
2019-01-02T08:39:31.513Z,7.20
2019-01-02T08:42:51.914Z,7.20
2019-01-02T08:45:48.146Z,7.20
2019-01-02T08:48:38.126Z,7.20
2019-01-02T08:51:39.343Z,7.30
2019-01-02T08:54:37.370Z,7.30
2019-01-02T08:57:28.751Z,7.30
2019-01-02T09:00:05.944Z,7.30
2019-01-02T09:02:55.680Z,7.30
2019-01-02T09:05:49.762Z,7.40
2019-01-02T09:08:29.788Z,7.40
2019-01-02T09:11:50.949Z,7.40
2019-01-02T09:14:54.079Z,7.50
2019-01-02T09:17:50.538Z,7.50
2019-01-02T09:20:40.561Z,7.50
2019-01-02T09:23:59.018Z,7.60
2019-01-02T09:27:05.219Z,7.60
2019-01-02T09:29:43.417Z,7.60
2019-01-02T09:32:44.355Z,7.60
2019-01-02T09:35:44.332Z,7.60
2019-01-02T09:38:57.769Z,7.70
2019-01-02T09:41:50.014Z,7.70
2019-01-02T09:44:41.806Z,7.70
2019-01-02T09:47:37.547Z,7.70
2019-01-02T09:50:33.349Z,7.80
2019-01-02T09:53:37.629Z,7.80
2019-01-02T09:56:28.853Z,7.80
2019-01-02T09:59:21.692Z,7.90
2019-01-02T10:02:33.293Z,7.90
2019-01-02T10:05:32.294Z,7.90
2019-01-02T10:08:33.534Z,8.00
2019-01-02T10:11:27.442Z,8.00
2019-01-02T10:14:29.264Z,8.00
2019-01-02T10:18:05.012Z,8.00
2019-01-02T10:21:21.272Z,8.10
2019-01-02T10:24:05.977Z,8.10
2019-01-02T10:27:19.122Z,8.10
2019-01-02T10:30:41.256Z,8.10
2019-01-02T10:33:12.407Z,8.10
2019-01-02T10:35:58.921Z,8.20
2019-01-02T10:39:02.099Z,8.20
2019-01-02T10:41:44.958Z,8.20
2019-01-02T10:44:26.665Z,8.30
2019-01-02T10:47:14.269Z,8.30
2019-01-02T10:49:49.853Z,8.40
2019-01-02T10:53:05.109Z,8.40
2019-01-02T10:56:15.347Z,8.40
2019-01-02T10:59:04.184Z,8.40
2019-01-02T11:02:03.741Z,8.50
2019-01-02T11:05:00.218Z,8.50
2019-01-02T11:07:29.027Z,8.50
2019-01-02T11:10:35.617Z,8.50
2019-01-02T11:13:27.275Z,8.50
2019-01-02T11:16:40.825Z,8.50
2019-01-02T11:19:32.838Z,8.50
2019-01-02T11:22:34.572Z,8.60
2019-01-02T11:25:32.284Z,8.60
2019-01-02T11:28:28.337Z,8.60
2019-01-02T11:31:50.861Z,8.60
2019-01-02T11:34:40.910Z,8.60
2019-01-02T11:37:50.738Z,8.70
2019-01-02T11:40:51.263Z,8.70
2019-01-02T11:43:50.459Z,8.70
2019-01-02T11:45:55.443Z,8.70
2019-01-02T11:48:00.541Z,8.70
2019-01-02T11:50:11.428Z,8.70
2019-01-02T11:52:16.452Z,8.70
2019-01-02T11:54:21.374Z,8.70
2019-01-02T11:56:26.412Z,8.80
2019-01-02T11:58:31.517Z,8.80
2019-01-02T12:00:36.645Z,8.80
2019-01-02T12:02:41.605Z,8.80
2019-01-02T12:04:46.663Z,8.80
2019-01-02T12:06:51.967Z,8.80
2019-01-02T12:08:56.986Z,8.80
2019-01-02T12:11:02.051Z,8.80
2019-01-02T12:13:07.133Z,8.80
2019-01-02T12:15:12.365Z,8.80
2019-01-02T12:17:17.280Z,8.80
2019-01-02T12:19:22.225Z,8.90
2019-01-02T12:21:27.118Z,8.90
2019-01-02T12:23:32.106Z,8.90
2019-01-02T12:25:37.061Z,8.90
2019-01-02T12:27:41.949Z,8.80
2019-01-02T12:29:46.934Z,8.90
2019-01-02T12:31:51.988Z,8.90
2019-01-02T12:33:57.036Z,9.00
2019-01-02T12:36:01.959Z,9.00
2019-01-02T12:38:07.153Z,9.00
2019-01-02T12:40:12.295Z,9.00
2019-01-02T12:42:17.170Z,9.00
2019-01-02T12:44:22.241Z,9.00
2019-01-02T12:46:27.212Z,9.00
2019-01-02T12:48:32.186Z,9.00
2019-01-02T12:50:37.178Z,9.00
2019-01-02T12:52:42.118Z,8.90
2019-01-02T12:54:47.042Z,9.00
2019-01-02T12:56:52.021Z,9.00
2019-01-02T12:58:56.982Z,8.90
2019-01-02T13:01:06.549Z,9.00
2019-01-02T13:03:55.871Z,9.00
2019-01-02T13:06:37.251Z,9.00
2019-01-02T13:09:17.968Z,9.00
2019-01-02T13:12:12.116Z,9.00
2019-01-02T13:15:12.625Z,9.00
2019-01-02T13:18:05.217Z,9.00
2019-01-02T13:20:35.454Z,9.00
2019-01-02T13:23:21.909Z,9.00
2019-01-02T13:26:21.009Z,9.00
2019-01-02T13:29:33.267Z,9.00
2019-01-02T13:32:37.082Z,9.10
2019-01-02T13:35:33.973Z,9.10
2019-01-02T13:38:08.392Z,9.10
2019-01-02T13:41:06.344Z,9.10
2019-01-02T13:43:42.058Z,9.00
2019-01-02T13:46:34.973Z,9.10
2019-01-02T13:49:34.451Z,9.00
2019-01-02T13:51:45.937Z,9.00
2019-01-02T13:53:50.892Z,9.00
2019-01-02T13:55:56.033Z,9.00
2019-01-02T13:58:00.995Z,9.00
2019-01-02T14:00:07.384Z,8.90
2019-01-02T14:02:12.686Z,9.00
2019-01-02T14:04:17.582Z,9.00
2019-01-02T14:06:22.555Z,8.90
2019-01-02T14:08:27.602Z,9.00
2019-01-02T14:10:32.515Z,8.90
2019-01-02T14:12:37.565Z,8.90
2019-01-02T14:14:42.452Z,8.90
2019-01-02T14:16:47.359Z,8.90
2019-01-02T14:18:52.307Z,8.90
2019-01-02T14:20:57.436Z,8.90
2019-01-02T14:23:02.556Z,8.80
2019-01-02T14:25:07.669Z,8.80
2019-01-02T14:27:12.584Z,8.80
2019-01-02T14:29:17.527Z,8.80
2019-01-02T14:31:22.640Z,8.80
2019-01-02T14:33:27.540Z,8.80
2019-01-02T14:35:32.578Z,8.80
2019-01-02T14:37:37.466Z,8.70
2019-01-02T14:39:42.459Z,8.70
2019-01-02T14:41:47.365Z,8.70
2019-01-02T14:43:52.331Z,8.70
2019-01-02T14:45:57.310Z,8.70
2019-01-02T14:48:02.184Z,8.70
2019-01-02T14:50:08.255Z,8.60
2019-01-02T14:52:13.301Z,8.60
2019-01-02T14:54:18.183Z,8.60
2019-01-02T14:56:23.100Z,8.60
2019-01-02T14:58:27.995Z,8.50
2019-01-02T15:00:33.610Z,8.50
2019-01-02T15:02:38.481Z,8.50
2019-01-02T15:04:43.368Z,8.40
2019-01-02T15:06:48.274Z,8.40
2019-01-02T15:08:53.180Z,8.30
2019-01-02T15:10:58.215Z,8.30
2019-01-02T15:13:03.199Z,8.30
2019-01-02T15:15:10.118Z,8.20
2019-01-02T15:17:15.028Z,8.20
2019-01-02T15:19:20.000Z,8.10
2019-01-02T15:21:25.019Z,8.10
2019-01-02T15:23:29.857Z,8.10
2019-01-02T15:25:34.730Z,8.00
2019-01-02T15:27:40.269Z,8.00
2019-01-02T15:29:45.325Z,8.00
2019-01-02T15:31:50.274Z,7.90
2019-01-02T15:33:55.623Z,7.90
2019-01-02T15:36:00.633Z,7.80
2019-01-02T15:38:05.653Z,7.80
2019-01-02T15:40:12.266Z,7.70
2019-01-02T15:42:17.141Z,7.70
2019-01-02T15:44:22.177Z,7.60
2019-01-02T15:46:27.062Z,7.60
2019-01-02T15:48:32.313Z,7.60
2019-01-02T15:50:37.367Z,7.50
2019-01-02T15:52:42.416Z,7.50
2019-01-02T15:54:47.300Z,7.40
2019-01-02T15:56:52.339Z,7.40
2019-01-02T15:58:57.317Z,7.30
2019-01-02T16:01:02.269Z,7.30
2019-01-02T16:03:08.142Z,7.20
2019-01-02T16:05:14.186Z,7.20
2019-01-02T16:07:20.256Z,7.10
2019-01-02T16:09:25.143Z,7.10
2019-01-02T16:11:30.061Z,7.00
2019-01-02T16:13:34.945Z,7.00
2019-01-02T16:15:40.125Z,6.90
2019-01-02T16:17:45.141Z,6.90
2019-01-02T16:19:50.146Z,6.80
2019-01-02T16:21:55.189Z,6.80
2019-01-02T16:24:00.169Z,6.70
2019-01-02T16:26:05.201Z,6.70
2019-01-02T16:28:10.228Z,6.60
2019-01-02T16:30:15.379Z,6.60
2019-01-02T16:32:20.507Z,6.60
2019-01-02T16:34:25.552Z,6.50
2019-01-02T16:36:30.463Z,6.50
2019-01-02T16:38:35.372Z,6.40
2019-01-02T16:40:40.514Z,6.40
2019-01-02T16:42:45.390Z,6.30
2019-01-02T16:44:50.497Z,6.30
2019-01-02T16:46:55.405Z,6.30
2019-01-02T16:49:00.420Z,6.20
2019-01-02T16:51:05.489Z,6.20
2019-01-02T16:53:10.483Z,6.10
2019-01-02T16:55:35.537Z,6.10
2019-01-02T16:57:40.895Z,6.10
2019-01-02T16:59:45.872Z,6.00
2019-01-02T17:01:50.849Z,6.00
2019-01-02T17:03:55.770Z,5.90
2019-01-02T17:06:00.651Z,5.90
2019-01-02T17:08:05.784Z,5.80
2019-01-02T17:10:12.533Z,5.80
2019-01-02T17:12:17.589Z,5.80
2019-01-02T17:14:22.560Z,5.70
2019-01-02T17:16:27.509Z,5.70
2019-01-02T17:18:32.768Z,5.60
2019-01-02T17:20:37.836Z,5.60
2019-01-02T17:22:42.729Z,5.60
2019-01-02T17:24:47.782Z,5.50
2019-01-02T17:26:52.647Z,5.50
2019-01-02T17:28:57.549Z,5.50
2019-01-02T17:31:02.492Z,5.50
2019-01-02T17:33:07.453Z,5.40
2019-01-02T17:35:12.449Z,5.40
2019-01-02T17:37:17.429Z,5.40
2019-01-02T17:39:22.756Z,5.30
2019-01-02T17:41:27.706Z,5.30
2019-01-02T17:43:32.725Z,5.30
2019-01-02T17:45:37.703Z,5.20
2019-01-02T17:47:42.583Z,5.20
2019-01-02T17:49:47.673Z,5.20
2019-01-02T17:51:52.834Z,5.20
2019-01-02T17:53:57.881Z,5.10
2019-01-02T17:56:02.811Z,5.10
2019-01-02T17:58:07.815Z,5.10
2019-01-02T18:00:14.203Z,5.10
2019-01-02T18:02:19.341Z,5.00
2019-01-02T18:04:24.231Z,5.00
2019-01-02T18:06:29.161Z,5.00
2019-01-02T18:08:34.089Z,5.00
2019-01-02T18:10:39.082Z,5.00
2019-01-02T18:12:44.047Z,5.00
2019-01-02T18:14:48.957Z,5.00
2019-01-02T18:16:53.985Z,5.00
2019-01-02T18:18:58.936Z,5.00
2019-01-02T18:21:03.981Z,5.00
2019-01-02T18:23:08.923Z,5.00
2019-01-02T18:25:13.904Z,5.00
2019-01-02T18:27:18.777Z,5.00
2019-01-02T18:29:23.776Z,5.00
2019-01-02T18:31:28.727Z,4.90
2019-01-02T18:33:33.750Z,4.90
2019-01-02T18:35:38.752Z,4.90
2019-01-02T18:37:43.714Z,4.90
2019-01-02T18:39:48.741Z,4.90
2019-01-02T18:41:53.789Z,4.90
2019-01-02T18:43:58.761Z,4.90
2019-01-02T18:46:03.746Z,4.90
2019-01-02T18:48:08.713Z,4.90
2019-01-02T18:50:13.688Z,4.90
2019-01-02T18:52:18.659Z,4.90
2019-01-02T18:54:23.661Z,4.80
2019-01-02T18:56:28.725Z,4.80
2019-01-02T18:58:33.680Z,4.80
2019-01-02T19:00:38.571Z,4.80
2019-01-02T19:02:43.475Z,4.80
2019-01-02T19:04:48.389Z,4.80
2019-01-02T19:06:53.365Z,4.80
2019-01-02T19:08:58.314Z,4.70
2019-01-02T19:11:03.368Z,4.70
2019-01-02T19:13:08.318Z,4.70
2019-01-02T19:15:13.458Z,4.70
2019-01-02T19:17:18.376Z,4.70
2019-01-02T19:19:23.746Z,4.70
2019-01-02T19:21:28.717Z,4.70
2019-01-02T19:23:33.767Z,4.60
2019-01-02T19:25:38.825Z,4.60
2019-01-02T19:27:43.821Z,4.60
2019-01-02T19:29:49.023Z,4.60
2019-01-02T19:31:54.054Z,4.60
2019-01-02T19:33:59.012Z,4.50
2019-01-02T19:36:04.137Z,4.50
2019-01-02T19:38:09.193Z,4.50
2019-01-02T19:40:14.642Z,4.50
2019-01-02T19:42:19.668Z,4.40
2019-01-02T19:44:24.973Z,4.40
2019-01-02T19:46:31.391Z,4.40
2019-01-02T19:48:36.701Z,4.40
2019-01-02T19:50:41.691Z,4.40
2019-01-02T19:52:46.961Z,4.40
2019-01-02T19:54:51.944Z,4.30
2019-01-02T19:56:56.940Z,4.30
2019-01-02T19:59:02.015Z,4.30
2019-01-02T20:01:07.210Z,4.30
2019-01-02T20:03:12.176Z,4.30
2019-01-02T20:05:17.145Z,4.30
2019-01-02T20:07:22.155Z,4.30
2019-01-02T20:09:27.139Z,4.30
2019-01-02T20:11:32.101Z,4.30
2019-01-02T20:13:37.032Z,4.30
2019-01-02T20:15:42.126Z,4.30
2019-01-02T20:17:47.083Z,4.20
2019-01-02T20:19:52.085Z,4.30
2019-01-02T20:21:56.987Z,4.20
2019-01-02T20:24:01.900Z,4.30
2019-01-02T20:26:06.863Z,4.20
2019-01-02T20:28:11.777Z,4.30
2019-01-02T20:30:16.704Z,4.20
2019-01-02T20:32:22.068Z,4.20
2019-01-02T20:34:27.072Z,4.20
2019-01-02T20:36:32.167Z,4.30
2019-01-02T20:38:37.213Z,4.30
2019-01-02T20:40:42.315Z,4.20
2019-01-02T20:42:47.256Z,4.20
2019-01-02T20:44:52.139Z,4.20
2019-01-02T20:46:57.040Z,4.20
2019-01-02T20:49:02.960Z,4.20
2019-01-02T20:51:07.853Z,4.20
2019-01-02T20:53:12.761Z,4.20
2019-01-02T20:55:17.832Z,4.20
2019-01-02T20:57:22.810Z,4.10
2019-01-02T20:59:27.760Z,4.10
2019-01-02T21:01:32.795Z,4.10
2019-01-02T21:03:37.939Z,4.10
2019-01-02T21:05:42.905Z,4.00
2019-01-02T21:07:47.927Z,4.00
2019-01-02T21:09:52.821Z,4.00
2019-01-02T21:11:57.724Z,4.00
2019-01-02T21:14:02.692Z,3.90
2019-01-02T21:16:07.591Z,3.90
2019-01-02T21:18:12.504Z,3.90
2019-01-02T21:20:17.621Z,3.90
2019-01-02T21:22:22.607Z,3.80
2019-01-02T21:24:27.745Z,3.80
2019-01-02T21:26:32.770Z,3.80
2019-01-02T21:28:37.820Z,3.80
2019-01-02T21:30:42.845Z,3.70
2019-01-02T21:32:47.840Z,3.70
2019-01-02T21:34:52.798Z,3.80
2019-01-02T21:36:57.870Z,3.70
2019-01-02T21:39:02.758Z,3.70
2019-01-02T21:41:08.001Z,3.60
2019-01-02T21:43:13.328Z,3.60
2019-01-02T21:45:18.290Z,3.60
2019-01-02T21:47:23.300Z,3.60
2019-01-02T21:49:28.451Z,3.60
2019-01-02T21:51:33.390Z,3.60
2019-01-02T21:53:38.742Z,3.60
2019-01-02T21:55:43.709Z,3.60
2019-01-02T21:57:48.696Z,3.50
2019-01-02T21:59:53.793Z,3.50
2019-01-02T22:01:58.816Z,3.60
2019-01-02T22:06:17.113Z,3.50
2019-01-02T22:08:22.275Z,3.60
2019-01-02T22:10:27.561Z,3.50
2019-01-02T22:12:32.513Z,3.60
2019-01-02T22:14:37.945Z,3.60
2019-01-02T22:16:43.121Z,3.60
2019-01-02T22:18:48.408Z,3.60
2019-01-02T22:20:53.556Z,3.60
2019-01-02T22:22:58.698Z,3.60
2019-01-02T22:25:03.749Z,3.60
2019-01-02T22:27:08.714Z,3.60
2019-01-02T22:29:13.897Z,3.60
2019-01-02T22:31:19.337Z,3.60
2019-01-02T22:33:24.430Z,3.60
2019-01-02T22:35:29.684Z,3.70
2019-01-02T22:37:34.888Z,3.70
2019-01-02T22:41:51.996Z,3.60
2019-01-02T22:43:56.859Z,3.70
2019-01-02T22:46:02.385Z,3.70
2019-01-02T22:48:07.420Z,3.70
2019-01-02T22:50:12.435Z,3.70
2019-01-02T22:52:17.344Z,3.70
2019-01-02T22:54:22.423Z,3.70
2019-01-02T22:56:27.389Z,3.70
2019-01-02T22:58:32.580Z,3.80
2019-01-02T23:00:55.647Z,3.80
2019-01-02T23:03:19.843Z,3.80
2019-01-02T23:05:57.235Z,3.80
2019-01-02T23:08:39.468Z,3.80
2019-01-02T23:11:02.294Z,3.80
2019-01-02T23:13:19.870Z,3.80
2019-01-02T23:15:46.205Z,3.80
2019-01-02T23:18:12.804Z,3.80
2019-01-02T23:20:39.652Z,3.70
2019-01-02T23:23:12.551Z,3.80
2019-01-02T23:25:35.359Z,3.80
2019-01-02T23:27:58.556Z,3.80
2019-01-02T23:30:22.625Z,3.80
2019-01-02T23:32:45.290Z,3.80
2019-01-02T23:35:12.548Z,3.80
2019-01-02T23:37:40.250Z,3.80
2019-01-02T23:40:03.088Z,3.80
2019-01-02T23:42:29.183Z,3.80
2019-01-02T23:44:58.628Z,3.80
2019-01-02T23:47:21.320Z,3.90
2019-01-02T23:49:39.991Z,3.90
2019-01-02T23:51:59.995Z,3.90
2019-01-02T23:54:20.117Z,3.90
2019-01-02T23:56:42.890Z,3.90
2019-01-02T23:59:16.173Z,3.90
